This is the latest recevied weather packets stored in our database for station/object K3CHZ. If no packets are shown the sender has not sent any weather packets the latest 1 day(s).
| Time | Temp. | Humidity | Pressure | Rain* | Wind** | Luminosity | Snow |
|---|---|---|---|---|---|---|---|
| 1778089338 | 17.78° C | 86% | 1008.7 hPa | 0 mm | - | - | - |
| 1778089037 | 17.78° C | 86% | 1008.7 hPa | 0 mm | - | - | - |
| 1778088437 | 17.22° C | 88% | 1008.7 hPa | 0 mm | - | - | - |
| 1778086639 | 16.67° C | 89% | 1008.8 hPa | 0 mm | - | - | - |
| 1778084540 | 16.11° C | 91% | 1008.9 hPa | 2.54 mm | - | - | - |
| 1778083940 | 16.11° C | 91% | 1009 hPa | 2.54 mm | - | - | - |
| 1778083640 | 16.11° C | 92% | 1009 hPa | 2.54 mm | - | - | - |
| 1778083340 | 16.11° C | 92% | 1009.3 hPa | 2.54 mm | - | - | - |
| 1778080937 | 15.56° C | 93% | 1009.4 hPa | 7.62 mm | - | - | - |
| 1778080637 | 15.56° C | 93% | 1009.4 hPa | 7.62 mm | - | - | - |
| 1778076140 | 15.56° C | 92% | 1009.6 hPa | 15.24 mm | - | - | - |
| 1778075837 | 15.56° C | 92% | 1009.7 hPa | 15.24 mm | - | - | - |
| 1778074638 | 15.56° C | 92% | 1010.2 hPa | 15.24 mm | - | - | - |
| 1778074338 | 15.56° C | 91% | 1010.4 hPa | 15.24 mm | - | - | - |
| 1778074035 | 15.56° C | 91% | 1010.5 hPa | 12.7 mm | - | - | - |
| 1778073435 | 16.11° C | 91% | 1010.1 hPa | 15.24 mm | - | - | - |
| 1778073134 | 16.11° C | 90% | 1010 hPa | 12.7 mm | - | - | - |
| 1778072234 | 16.11° C | 89% | 1009.9 hPa | 7.62 mm | - | - | - |
| 1778071936 | 16.11° C | 88% | 1009.7 hPa | 7.62 mm | - | - | - |
| 1778070140 | 16.67° C | 83% | 1010.1 hPa | 0 mm | - | - | - |
| 1778069537 | 17.22° C | 81% | 1010.3 hPa | 0 mm | - | - | - |
| 1778068038 | 17.78° C | 75% | 1010.2 hPa | 0 mm | - | - | - |
| 1778067737 | 17.78° C | 75% | 1010.2 hPa | 0 mm | - | - | - |
| 1778066838 | 17.78° C | 74% | 1009.9 hPa | 0 mm | - | - | - |
| 1778066538 | 17.78° C | 74% | 1009.8 hPa | 0 mm | - | - | - |
* Rain latest hour (hover to see other rain measurements)
** Current wind speed in m/s (hover to see current wind gust speed)